createdAt,value
2019-04-26T00:00:55.298Z,17.10
2019-04-26T00:03:41.959Z,17.90
2019-04-26T00:06:12.635Z,17.63
2019-04-26T00:08:42.362Z,17.90
2019-04-26T00:11:13.785Z,18.27
2019-04-26T00:13:44.597Z,17.97
2019-04-26T00:16:14.903Z,17.37
2019-04-26T00:18:43.628Z,17.97
2019-04-26T00:21:12.442Z,18.43
2019-04-26T00:23:41.498Z,17.30
2019-04-26T00:26:11.076Z,18.40
2019-04-26T00:28:40.885Z,17.70
2019-04-26T00:31:11.399Z,18.30
2019-04-26T00:33:40.220Z,17.93
2019-04-26T00:36:09.001Z,17.87
2019-04-26T00:38:37.717Z,18.07
2019-04-26T00:41:06.640Z,18.03
2019-04-26T00:43:35.868Z,18.17
2019-04-26T00:46:05.891Z,18.27
2019-04-26T00:48:35.912Z,17.60
2019-04-26T00:51:06.729Z,17.43
2019-04-26T00:53:36.953Z,17.73
2019-04-26T00:56:06.666Z,18.07
2019-04-26T00:58:36.992Z,18.77
2019-04-26T01:01:05.710Z,18.20
2019-04-26T01:03:34.522Z,19.00
2019-04-26T01:06:04.801Z,18.07
2019-04-26T01:08:33.520Z,18.20
2019-04-26T01:11:02.233Z,18.10
2019-04-26T01:13:31.003Z,18.03
2019-04-26T01:15:59.721Z,16.97
2019-04-26T01:18:28.436Z,17.20
2019-04-26T01:21:00.071Z,17.23
2019-04-26T01:23:30.927Z,16.70
2019-04-26T01:26:23.243Z,17.27
2019-04-26T01:29:01.072Z,16.30
2019-04-26T01:31:32.807Z,16.97
2019-04-26T01:34:02.055Z,16.97
2019-04-26T01:36:32.171Z,17.10
2019-04-26T01:39:07.949Z,16.90
2019-04-26T01:41:39.149Z,16.97
2019-04-26T01:44:09.728Z,17.13
2019-04-26T01:46:50.444Z,18.27
2019-04-26T01:49:22.378Z,17.33
2019-04-26T01:52:06.069Z,16.93
2019-04-26T01:54:40.267Z,18.23
2019-04-26T01:57:09.886Z,18.03
2019-04-26T01:59:42.029Z,18.07
2019-04-26T02:02:25.666Z,18.27
2019-04-26T02:04:59.777Z,18.60
2019-04-26T02:07:43.599Z,18.90
2019-04-26T02:10:14.898Z,19.10
2019-04-26T02:12:46.606Z,19.77
2019-04-26T02:15:16.522Z,20.20
2019-04-26T02:17:46.841Z,20.13
2019-04-26T02:20:18.458Z,17.97
2019-04-26T02:22:57.563Z,18.47
2019-04-26T02:25:26.371Z,18.77
2019-04-26T02:27:55.093Z,19.83
2019-04-26T02:30:26.334Z,20.17
2019-04-26T02:32:54.358Z,21.53
2019-04-26T02:35:23.269Z,21.97
2019-04-26T02:37:52.419Z,22.77
2019-04-26T02:40:21.131Z,23.10
2019-04-26T02:42:50.720Z,23.30
2019-04-26T02:45:57.218Z,21.53
2019-04-26T02:48:34.810Z,21.63
2019-04-26T02:51:06.705Z,19.20
2019-04-26T02:53:47.250Z,19.23
2019-04-26T02:56:24.481Z,19.03
2019-04-26T02:59:02.087Z,20.97
2019-04-26T03:01:32.356Z,22.40
2019-04-26T03:04:01.671Z,20.90
2019-04-26T03:06:34.426Z,23.23
2019-04-26T03:09:06.907Z,27.97
2019-04-26T03:11:44.506Z,31.63
2019-04-26T03:14:16.873Z,31.93
2019-04-26T03:17:05.852Z,29.53
2019-04-26T03:20:03.327Z,35.30
2019-04-26T03:23:03.035Z,30.37
2019-04-26T03:26:02.090Z,29.17
2019-04-26T03:28:37.613Z,28.50
2019-04-26T03:31:28.185Z,26.90
2019-04-26T03:34:20.553Z,26.20
2019-04-26T03:37:29.049Z,25.70
2019-04-26T03:40:21.541Z,25.00
2019-04-26T03:43:25.446Z,24.30
2019-04-26T03:46:16.344Z,26.00
2019-04-26T03:48:53.724Z,24.63
2019-04-26T03:51:44.957Z,25.67
2019-04-26T03:54:19.795Z,25.23
2019-04-26T03:56:55.728Z,23.13
2019-04-26T03:59:35.184Z,20.20
2019-04-26T04:02:09.440Z,19.70
2019-04-26T04:04:43.451Z,19.40
2019-04-26T04:07:16.016Z,17.83
2019-04-26T04:09:47.677Z,26.07
2019-04-26T04:12:25.424Z,23.83
2019-04-26T04:15:06.322Z,20.33
2019-04-26T04:17:45.353Z,20.27
2019-04-26T04:20:31.789Z,19.73
2019-04-26T04:23:27.052Z,19.57
2019-04-26T04:25:58.210Z,21.00
2019-04-26T04:28:55.720Z,21.33
2019-04-26T04:31:40.394Z,21.43
2019-04-26T04:34:12.895Z,21.27
2019-04-26T04:36:46.963Z,21.80
2019-04-26T04:39:23.187Z,20.40
2019-04-26T04:42:25.268Z,24.40
2019-04-26T04:45:13.230Z,19.40
2019-04-26T04:47:51.886Z,20.83
2019-04-26T04:50:26.575Z,19.97
2019-04-26T04:53:03.910Z,19.23
2019-04-26T04:55:53.457Z,21.83
2019-04-26T04:58:31.018Z,21.30
2019-04-26T05:01:25.224Z,21.00
2019-04-26T05:04:09.984Z,20.33
2019-04-26T05:07:07.214Z,22.70
2019-04-26T05:09:38.845Z,24.80
2019-04-26T05:12:22.550Z,21.60
2019-04-26T05:15:13.695Z,27.47
2019-04-26T05:18:15.167Z,38.20
2019-04-26T05:20:53.298Z,31.90
2019-04-26T05:23:31.109Z,28.10
2019-04-26T05:26:19.433Z,41.17
2019-04-26T05:29:08.007Z,41.70
2019-04-26T05:31:52.669Z,22.00
2019-04-26T05:34:26.028Z,23.60
2019-04-26T05:37:09.808Z,22.20
2019-04-26T05:40:02.588Z,22.67
2019-04-26T05:43:04.663Z,22.03
2019-04-26T05:45:56.286Z,22.33
2019-04-26T05:48:53.656Z,25.00
2019-04-26T05:51:45.799Z,24.07
2019-04-26T05:54:42.944Z,23.50
2019-04-26T05:57:27.806Z,25.07
2019-04-26T06:00:15.782Z,23.77
2019-04-26T06:03:10.913Z,23.17
2019-04-26T06:06:11.048Z,23.63
2019-04-26T06:09:05.314Z,20.57
2019-04-26T06:11:47.411Z,19.67
2019-04-26T06:14:35.399Z,17.97
2019-04-26T06:17:08.607Z,17.97
2019-04-26T06:20:02.824Z,19.77
2019-04-26T06:23:08.968Z,16.90
2019-04-26T06:26:01.373Z,16.23
2019-04-26T06:28:47.791Z,15.70
2019-04-26T06:31:22.231Z,15.80
2019-04-26T06:34:06.283Z,16.60
2019-04-26T06:36:39.466Z,17.57
2019-04-26T06:39:24.595Z,17.27
2019-04-26T06:42:28.276Z,16.70
2019-04-26T06:45:16.519Z,16.20
2019-04-26T06:48:01.867Z,17.40
2019-04-26T06:51:00.394Z,15.90
2019-04-26T06:53:46.629Z,16.57
2019-04-26T06:56:35.025Z,15.83
2019-04-26T06:59:21.691Z,14.70
2019-04-26T07:02:02.924Z,15.37
2019-04-26T07:04:56.051Z,15.10
2019-04-26T07:07:55.060Z,15.13
2019-04-26T07:10:38.547Z,23.23
2019-04-26T07:13:46.704Z,14.67
2019-04-26T07:16:36.396Z,14.37
2019-04-26T07:19:51.681Z,14.30
2019-04-26T07:22:35.500Z,13.73
2019-04-26T07:25:23.020Z,14.60
2019-04-26T07:28:03.829Z,15.27
2019-04-26T07:30:47.310Z,13.40
2019-04-26T07:33:41.756Z,14.00
2019-04-26T07:36:21.951Z,14.23
2019-04-26T07:39:10.419Z,14.23
2019-04-26T07:42:07.815Z,14.97
2019-04-26T07:45:02.750Z,13.80
2019-04-26T07:48:18.257Z,13.77
2019-04-26T07:51:18.929Z,14.30
2019-04-26T07:54:19.108Z,14.13
2019-04-26T07:57:22.729Z,13.57
2019-04-26T07:59:57.285Z,14.27
2019-04-26T08:02:55.535Z,15.30
2019-04-26T08:05:51.364Z,15.50
2019-04-26T08:08:22.827Z,15.87
2019-04-26T08:11:06.858Z,17.30
2019-04-26T08:13:38.573Z,15.97
2019-04-26T08:16:12.387Z,14.90
2019-04-26T08:18:54.633Z,15.67
2019-04-26T08:21:32.013Z,15.17
2019-04-26T08:24:08.250Z,16.57
2019-04-26T08:26:39.918Z,15.80
2019-04-26T08:29:14.702Z,16.37
2019-04-26T08:31:46.640Z,17.43
2019-04-26T08:34:21.155Z,15.93
2019-04-26T08:37:01.914Z,16.30
2019-04-26T08:39:44.529Z,15.67
2019-04-26T08:42:05.048Z,15.97
2019-04-26T08:44:46.814Z,15.07
2019-04-26T08:47:30.401Z,14.30
2019-04-26T08:50:02.091Z,15.17
2019-04-26T08:52:33.722Z,14.37
2019-04-26T08:55:05.155Z,14.33
2019-04-26T08:57:37.137Z,15.00
2019-04-26T09:00:15.358Z,15.47
2019-04-26T09:02:54.048Z,14.97
2019-04-26T09:05:45.747Z,14.73
2019-04-26T09:08:15.735Z,15.60
2019-04-26T09:10:47.369Z,14.90
2019-04-26T09:13:17.954Z,14.57
2019-04-26T09:16:07.699Z,14.17
2019-04-26T09:18:42.931Z,14.27
2019-04-26T09:21:06.999Z,14.27
2019-04-26T09:23:53.651Z,14.10
2019-04-26T09:26:36.009Z,15.47
2019-04-26T09:29:26.383Z,14.03
2019-04-26T09:31:59.682Z,14.03
2019-04-26T09:34:29.967Z,14.67
2019-04-26T09:36:58.689Z,13.87
2019-04-26T09:39:28.020Z,14.63
2019-04-26T09:42:01.218Z,13.93
2019-04-26T09:44:37.601Z,14.03
2019-04-26T09:47:13.875Z,14.23
2019-04-26T09:49:53.266Z,13.70
2019-04-26T09:52:35.661Z,14.00
2019-04-26T09:55:06.293Z,14.13
2019-04-26T09:57:35.003Z,13.93
2019-04-26T10:00:05.129Z,13.70
2019-04-26T10:02:35.361Z,13.87
2019-04-26T10:05:11.869Z,13.90
2019-04-26T10:07:38.955Z,14.33
2019-04-26T10:10:08.386Z,13.63
2019-04-26T10:12:44.856Z,13.00
2019-04-26T10:15:22.404Z,13.63
2019-04-26T10:17:52.384Z,12.73
2019-04-26T10:20:21.097Z,12.37
2019-04-26T10:22:49.818Z,11.70
2019-04-26T10:25:18.541Z,11.03
2019-04-26T10:27:47.306Z,11.73
2019-04-26T10:30:17.622Z,11.73
2019-04-26T10:32:46.537Z,11.87
2019-04-26T10:35:17.491Z,11.67
2019-04-26T10:37:48.044Z,11.83
2019-04-26T10:40:16.294Z,11.07
2019-04-26T10:42:45.058Z,11.10
2019-04-26T10:45:14.795Z,11.70
2019-04-26T10:47:44.374Z,11.73
2019-04-26T10:50:13.689Z,11.77
2019-04-26T10:52:54.063Z,11.73
2019-04-26T10:55:21.982Z,11.00
2019-04-26T10:57:56.136Z,11.97
2019-04-26T11:00:26.621Z,12.27
2019-04-26T11:02:55.342Z,12.10
2019-04-26T11:05:24.059Z,12.50
2019-04-26T11:07:53.490Z,11.53
2019-04-26T11:10:24.374Z,11.47
2019-04-26T11:12:52.761Z,11.37
2019-04-26T11:15:21.483Z,11.60
2019-04-26T11:17:51.102Z,11.77
2019-04-26T11:20:19.936Z,11.43
2019-04-26T11:22:48.648Z,11.70
2019-04-26T11:25:17.364Z,11.20
2019-04-26T11:27:48.565Z,11.77
2019-04-26T11:30:20.984Z,12.27
2019-04-26T11:32:47.613Z,11.93
2019-04-26T11:35:16.475Z,11.50
2019-04-26T11:37:46.431Z,11.83
2019-04-26T11:40:15.850Z,11.20
2019-04-26T11:42:45.663Z,11.37
2019-04-26T11:45:16.180Z,10.80
2019-04-26T11:47:55.431Z,11.80
2019-04-26T11:50:16.462Z,10.83
2019-04-26T11:52:46.181Z,11.00
2019-04-26T11:55:15.063Z,11.23
2019-04-26T11:57:47.390Z,11.17
2019-04-26T12:00:16.444Z,11.10
2019-04-26T12:02:46.329Z,11.13
2019-04-26T12:05:35.589Z,10.13
2019-04-26T12:08:05.879Z,11.07
2019-04-26T12:10:34.599Z,11.37
2019-04-26T12:13:05.903Z,10.40
2019-04-26T12:15:33.773Z,11.57
2019-04-26T12:18:05.488Z,9.73
2019-04-26T12:20:33.078Z,9.90
2019-04-26T12:23:01.795Z,10.17
2019-04-26T12:25:31.156Z,10.63
2019-04-26T12:28:02.012Z,9.67
2019-04-26T12:30:30.379Z,9.93
2019-04-26T12:32:59.103Z,10.77
2019-04-26T12:35:30.014Z,10.20
2019-04-26T12:37:58.297Z,9.83
2019-04-26T12:40:27.011Z,9.77
2019-04-26T12:42:55.717Z,8.77
2019-04-26T12:45:35.224Z,9.73
2019-04-26T12:48:12.344Z,9.83
2019-04-26T12:50:41.937Z,9.63
2019-04-26T12:53:10.641Z,9.23
2019-04-26T12:55:39.354Z,9.00
2019-04-26T12:58:11.077Z,9.00
2019-04-26T13:00:38.854Z,9.83
2019-04-26T13:03:19.693Z,9.00
2019-04-26T13:05:38.622Z,9.37
2019-04-26T13:08:07.370Z,9.67
2019-04-26T13:10:55.464Z,9.00
2019-04-26T13:13:28.476Z,9.07
2019-04-26T13:16:13.805Z,9.83
2019-04-26T13:18:45.302Z,9.47
2019-04-26T13:21:12.948Z,8.50
2019-04-26T13:23:41.676Z,9.47
2019-04-26T13:26:10.383Z,9.33
2019-04-26T13:28:39.137Z,9.20
2019-04-26T13:31:07.849Z,9.57
2019-04-26T13:33:36.559Z,9.07
2019-04-26T13:36:05.733Z,9.27
2019-04-26T13:38:34.443Z,8.40
2019-04-26T13:41:04.611Z,8.90
2019-04-26T13:43:33.787Z,9.00
2019-04-26T13:46:16.050Z,9.10
2019-04-26T13:49:02.596Z,9.60
2019-04-26T13:51:38.980Z,8.43
2019-04-26T13:54:07.694Z,8.80
2019-04-26T13:56:37.587Z,9.37
2019-04-26T13:59:06.461Z,8.10
2019-04-26T14:01:35.224Z,8.60
2019-04-26T14:04:06.950Z,9.50
2019-04-26T14:06:34.523Z,8.27
2019-04-26T14:09:03.627Z,8.80
2019-04-26T14:11:32.341Z,8.87
2019-04-26T14:14:01.845Z,9.30
2019-04-26T14:16:31.052Z,9.30
2019-04-26T14:18:59.818Z,8.47
2019-04-26T14:21:29.230Z,8.17
2019-04-26T14:24:19.774Z,9.63
2019-04-26T14:26:47.867Z,8.47
2019-04-26T14:29:16.577Z,9.07
2019-04-26T14:31:47.333Z,9.30
2019-04-26T14:34:15.836Z,8.70
2019-04-26T14:36:44.583Z,8.17
2019-04-26T14:39:14.458Z,8.53
2019-04-26T14:41:43.825Z,8.13
2019-04-26T14:44:15.792Z,8.80
2019-04-26T14:46:49.040Z,8.90
2019-04-26T14:49:13.526Z,8.00
2019-04-26T14:51:42.360Z,8.20
2019-04-26T14:54:11.701Z,9.03
2019-04-26T14:56:51.717Z,8.57
2019-04-26T14:59:12.214Z,8.10
2019-04-26T15:01:42.666Z,8.47
2019-04-26T15:04:29.224Z,8.43
2019-04-26T15:06:59.688Z,8.33
2019-04-26T15:09:33.258Z,7.63
2019-04-26T15:12:01.434Z,7.70
2019-04-26T15:14:29.395Z,8.20
2019-04-26T15:16:58.166Z,8.67
2019-04-26T15:19:26.887Z,8.93
2019-04-26T15:21:55.653Z,8.33
2019-04-26T15:24:25.928Z,8.10
2019-04-26T15:26:58.131Z,8.10
2019-04-26T15:29:26.888Z,8.03
2019-04-26T15:31:57.298Z,8.90
2019-04-26T15:34:26.682Z,8.47
2019-04-26T15:36:55.415Z,8.53
2019-04-26T15:39:37.751Z,8.90
2019-04-26T15:42:08.136Z,8.10
2019-04-26T15:44:57.493Z,8.20
2019-04-26T15:47:32.057Z,8.27
2019-04-26T15:50:09.765Z,8.73
2019-04-26T15:52:35.383Z,8.63
2019-04-26T15:55:06.045Z,8.37
2019-04-26T15:57:34.947Z,8.93
2019-04-26T16:00:04.650Z,8.43
2019-04-26T16:02:33.371Z,8.77
2019-04-26T16:05:02.629Z,9.10
2019-04-26T16:07:33.010Z,8.50
2019-04-26T16:10:01.942Z,8.37
2019-04-26T16:12:32.102Z,9.10
2019-04-26T16:15:02.459Z,8.40
2019-04-26T16:17:31.398Z,8.77
2019-04-26T16:20:01.751Z,9.03
2019-04-26T16:22:32.808Z,9.43
2019-04-26T16:25:02.359Z,8.90
2019-04-26T16:27:34.440Z,9.70
2019-04-26T16:30:03.509Z,9.40
2019-04-26T16:32:54.348Z,9.03
2019-04-26T16:35:25.178Z,8.90
2019-04-26T16:37:52.170Z,9.53
2019-04-26T16:40:20.862Z,9.47
2019-04-26T16:42:54.665Z,9.50
2019-04-26T16:45:20.011Z,9.77
2019-04-26T16:47:48.945Z,9.07
2019-04-26T16:50:23.229Z,9.20
2019-04-26T16:52:48.213Z,10.30
2019-04-26T16:55:20.877Z,12.10
2019-04-26T16:57:55.009Z,14.60
2019-04-26T17:00:17.818Z,14.80
2019-04-26T17:02:46.665Z,11.90
2019-04-26T17:05:23.992Z,9.80
2019-04-26T17:07:48.383Z,10.37
2019-04-26T17:10:20.742Z,9.80
2019-04-26T17:12:50.765Z,11.20
2019-04-26T17:15:20.989Z,10.10
2019-04-26T17:17:52.630Z,11.83
2019-04-26T17:20:21.260Z,15.40
2019-04-26T17:23:01.022Z,16.67
2019-04-26T17:25:37.134Z,13.13
2019-04-26T17:28:07.496Z,11.30
2019-04-26T17:30:41.001Z,12.60
2019-04-26T17:33:09.116Z,12.77
2019-04-26T17:35:40.924Z,13.30
2019-04-26T17:38:11.443Z,12.97
2019-04-26T17:40:41.084Z,12.37
2019-04-26T17:43:11.488Z,13.33
2019-04-26T17:45:44.014Z,14.67
2019-04-26T17:48:14.053Z,14.23
2019-04-26T17:50:42.364Z,16.97
2019-04-26T17:53:13.495Z,17.53
2019-04-26T17:55:45.563Z,15.10
2019-04-26T17:58:17.366Z,12.93
2019-04-26T18:00:45.762Z,11.90
2019-04-26T18:03:26.473Z,11.87
2019-04-26T18:05:57.093Z,12.67
2019-04-26T18:08:40.601Z,13.13
2019-04-26T18:10:56.112Z,13.00
2019-04-26T18:13:24.828Z,13.40
2019-04-26T18:15:53.585Z,11.07
2019-04-26T18:18:36.136Z,12.27
2019-04-26T18:21:06.559Z,12.70
2019-04-26T18:23:35.280Z,12.83
2019-04-26T18:26:04.000Z,13.03
2019-04-26T18:28:33.974Z,18.30
2019-04-26T18:31:03.584Z,14.80
2019-04-26T18:33:33.281Z,10.90
2019-04-26T18:36:01.990Z,9.90
2019-04-26T18:38:30.750Z,11.37
2019-04-26T18:41:01.360Z,14.10
2019-04-26T18:43:29.900Z,13.57
2019-04-26T18:46:03.456Z,11.87
2019-04-26T18:48:35.224Z,19.17
2019-04-26T18:51:01.114Z,16.77
2019-04-26T18:53:36.552Z,17.03
2019-04-26T18:56:03.370Z,13.53
2019-04-26T18:58:34.737Z,12.20
2019-04-26T19:01:05.209Z,12.97
2019-04-26T19:03:33.819Z,10.87
2019-04-26T19:06:05.502Z,10.83
2019-04-26T19:08:43.855Z,11.17
2019-04-26T19:11:07.491Z,16.47
2019-04-26T19:13:38.237Z,19.47
2019-04-26T19:16:16.623Z,25.80
2019-04-26T19:18:49.443Z,16.67
2019-04-26T19:21:25.676Z,12.20
2019-04-26T19:24:04.947Z,9.77
2019-04-26T19:26:32.246Z,9.53
2019-04-26T19:28:55.270Z,11.33
2019-04-26T19:31:27.108Z,10.10
2019-04-26T19:33:56.100Z,11.43
2019-04-26T19:36:27.855Z,10.03
2019-04-26T19:38:55.488Z,9.60
2019-04-26T19:41:25.171Z,9.57
2019-04-26T19:43:54.691Z,9.93
2019-04-26T19:46:28.019Z,9.40
2019-04-26T19:49:14.508Z,11.00
2019-04-26T19:51:52.189Z,9.47
2019-04-26T19:54:35.677Z,12.37
2019-04-26T19:57:03.655Z,10.77
2019-04-26T19:59:34.308Z,9.93
2019-04-26T20:02:01.714Z,10.00
2019-04-26T20:04:33.974Z,9.63
2019-04-26T20:07:01.371Z,10.10
2019-04-26T20:09:31.816Z,10.73
2019-04-26T20:12:02.574Z,10.03
2019-04-26T20:14:44.592Z,10.23
2019-04-26T20:17:01.831Z,10.30
2019-04-26T20:19:36.839Z,10.20
2019-04-26T20:22:01.878Z,10.20
2019-04-26T20:24:31.522Z,9.60
2019-04-26T20:27:01.500Z,10.50
2019-04-26T20:29:32.285Z,10.53
2019-04-26T20:32:08.967Z,11.07
2019-04-26T20:34:37.740Z,11.00
2019-04-26T20:37:06.478Z,12.00
2019-04-26T20:39:35.179Z,13.80
2019-04-26T20:42:04.148Z,14.43
2019-04-26T20:44:48.126Z,18.67
2019-04-26T20:47:03.476Z,14.00
2019-04-26T20:49:32.311Z,15.30
2019-04-26T20:52:02.009Z,18.07
2019-04-26T20:54:31.599Z,14.60
2019-04-26T20:57:01.874Z,12.87
2019-04-26T20:59:30.726Z,12.70
2019-04-26T21:02:05.481Z,12.73
2019-04-26T21:04:38.181Z,12.07
2019-04-26T21:07:02.240Z,12.27
2019-04-26T21:09:32.315Z,11.50
2019-04-26T21:12:01.928Z,12.03
2019-04-26T21:14:31.621Z,11.03
2019-04-26T21:17:00.495Z,10.70
2019-04-26T21:19:29.207Z,10.37
2019-04-26T21:21:57.925Z,10.93
2019-04-26T21:24:28.826Z,11.43
2019-04-26T21:27:05.249Z,12.07
2019-04-26T21:29:44.782Z,12.40
2019-04-26T21:32:33.261Z,12.63
2019-04-26T21:35:03.681Z,12.37
2019-04-26T21:37:40.002Z,12.60
2019-04-26T21:40:26.223Z,12.90
2019-04-26T21:42:59.309Z,11.97
2019-04-26T21:45:28.379Z,12.33
2019-04-26T21:47:56.003Z,12.80
2019-04-26T21:50:24.715Z,12.33
2019-04-26T21:52:54.148Z,12.60
2019-04-26T21:55:27.734Z,12.40
2019-04-26T21:57:53.842Z,13.00
2019-04-26T22:00:27.132Z,12.27
2019-04-26T22:02:55.844Z,13.07
2019-04-26T22:05:24.673Z,13.13
2019-04-26T22:07:53.542Z,13.27
2019-04-26T22:10:43.730Z,13.63
2019-04-26T22:13:14.008Z,14.40
2019-04-26T22:15:49.053Z,13.70
2019-04-26T22:18:28.691Z,13.67
2019-04-26T22:21:05.128Z,14.27
2019-04-26T22:23:38.355Z,14.10
2019-04-26T22:26:08.677Z,14.43
2019-04-26T22:28:37.587Z,14.30
2019-04-26T22:31:08.472Z,14.90
2019-04-26T22:33:36.914Z,14.43
2019-04-26T22:36:05.736Z,13.10
2019-04-26T22:38:34.454Z,15.13
2019-04-26T22:41:03.364Z,15.73
2019-04-26T22:43:54.117Z,15.33
2019-04-26T22:46:29.709Z,14.47
2019-04-26T22:49:01.330Z,14.90
2019-04-26T22:51:28.599Z,14.97
2019-04-26T22:54:01.836Z,14.33
2019-04-26T22:56:27.962Z,16.67
2019-04-26T22:58:58.419Z,15.53
2019-04-26T23:01:27.325Z,14.47
2019-04-26T23:03:56.035Z,14.73
2019-04-26T23:06:24.887Z,14.87
2019-04-26T23:08:54.012Z,15.60
2019-04-26T23:11:23.168Z,14.27
2019-04-26T23:14:07.218Z,16.50
2019-04-26T23:17:01.488Z,15.37
2019-04-26T23:19:33.623Z,15.70
2019-04-26T23:22:03.949Z,15.87
2019-04-26T23:24:32.826Z,15.97
2019-04-26T23:27:01.567Z,15.83
2019-04-26T23:29:30.279Z,16.47
2019-04-26T23:31:59.005Z,16.70
2019-04-26T23:34:27.727Z,16.87
2019-04-26T23:36:56.435Z,16.73
2019-04-26T23:39:25.185Z,15.90
2019-04-26T23:41:54.122Z,16.13
2019-04-26T23:44:23.264Z,15.47
2019-04-26T23:46:54.965Z,15.20
2019-04-26T23:49:23.260Z,15.60
2019-04-26T23:51:53.434Z,17.00
2019-04-26T23:54:23.882Z,15.93
2019-04-26T23:56:55.640Z,16.80
2019-04-26T23:59:24.678Z,16.33
